Time;durP1;ratioP1;P1;durP2;ratioP2;P2;SDS_P1;SDS_P2;PMS_P1;PMS_P2;Temp;Humidity;BMP_temperature;BMP_pressure;BME280_temperature;BME280_humidity;BME280_pressure;Samples;Min_cycle;Max_cycle;Signal;HPM_P1;HPM_P2
2024/01/14 00:03:16;;;;;;;16.33;14.60;;;;;;;;;;10183094;28;20378;-74
2024/01/14 00:08:08;;;;;;;19.50;14.60;;;;;;;;;;10180589;28;20127;-74
2024/01/14 00:13:00;;;;;;;17.45;13.45;;;;;;;;;;10181399;28;20085;-74
2024/01/14 00:17:52;;;;;;;15.77;12.60;;;;;;;;;;10181827;28;20048;-75
2024/01/14 00:22:44;;;;;;;18.10;14.45;;;;;;;;;;10182017;28;20051;-75
2024/01/14 00:27:36;;;;;;;18.55;14.77;;;;;;;;;;10181142;28;20348;-75
2024/01/14 00:32:28;;;;;;;19.02;15.05;;;;;;;;;;10179899;28;20048;-74
2024/01/14 00:37:20;;;;;;;15.98;12.88;;;;;;;;;;10174239;28;20122;-75
2024/01/14 00:42:12;;;;;;;17.90;14.50;;;;;;;;;;10179000;28;20401;-75
2024/01/14 00:47:04;;;;;;;15.98;13.32;;;;;;;;;;10181092;28;20470;-74
2024/01/14 00:51:56;;;;;;;16.55;14.68;;;;;;;;;;10182023;28;20036;-74
2024/01/14 00:56:48;;;;;;;17.58;14.60;;;;;;;;;;10178830;28;20059;-74
2024/01/14 01:01:40;;;;;;;15.48;13.10;;;;;;;;;;10177955;28;20036;-76
2024/01/14 01:06:32;;;;;;;15.90;14.20;;;;;;;;;;10169235;28;20052;-74
2024/01/14 01:11:24;;;;;;;17.30;13.10;;;;;;;;;;10168256;28;20041;-73
2024/01/14 01:16:15;;;;;;;14.30;11.95;;;;;;;;;;10172656;28;20047;-75
2024/01/14 01:21:07;;;;;;;17.55;14.80;;;;;;;;;;10176552;28;20043;-77
2024/01/14 01:26:00;;;;;;;19.85;13.88;;;;;;;;;;10179960;28;20093;-77
2024/01/14 01:30:52;;;;;;;19.17;13.45;;;;;;;;;;10179071;28;20089;-76
2024/01/14 01:35:44;;;;;;;16.27;13.60;;;;;;;;;;10179609;28;20040;-76
2024/01/14 01:40:36;;;;;;;16.95;13.80;;;;;;;;;;10179419;28;20558;-76
2024/01/14 01:45:28;;;;;;;19.42;15.13;;;;;;;;;;10180712;28;20135;-76
2024/01/14 01:50:20;;;;;;;20.67;13.13;;;;;;;;;;10176739;28;20036;-76
2024/01/14 01:55:13;;;;;;;17.25;14.80;;;;;;;;;;10178369;28;20133;-76
2024/01/14 02:00:08;;;;;;;16.05;13.00;;;;;;;;;;10193354;28;20047;-77
2024/01/14 02:05:04;;;;;;;18.48;13.93;;;;;;;;;;10176058;28;20119;-76
2024/01/14 02:09:56;;;;;;;17.02;13.52;;;;;;;;;;10190986;28;20105;-76
2024/01/14 02:14:48;;;;;;;13.68;11.90;;;;;;;;;;10176700;28;20572;-76
2024/01/14 02:19:40;;;;;;;17.75;13.27;;;;;;;;;;10175840;28;20047;-76
2024/01/14 02:24:33;;;;;;;17.58;13.88;;;;;;;;;;10178327;28;20493;-77
2024/01/14 02:29:27;;;;;;;13.73;12.23;;;;;;;;;;10191523;28;20080;-76
2024/01/14 02:34:19;;;;;;;16.02;12.00;;;;;;;;;;10178025;28;20146;-77
2024/01/14 02:39:11;;;;;;;16.25;11.73;;;;;;;;;;10176037;28;20441;-76
2024/01/14 02:44:04;;;;;;;15.60;13.15;;;;;;;;;;10177322;28;20047;-76
2024/01/14 02:48:57;;;;;;;16.20;12.52;;;;;;;;;;10176356;28;20043;-76
2024/01/14 02:53:49;;;;;;;14.77;11.77;;;;;;;;;;10177004;28;20150;-77
2024/01/14 02:58:41;;;;;;;17.35;11.18;;;;;;;;;;10175414;28;20362;-76
2024/01/14 03:03:33;;;;;;;14.32;11.27;;;;;;;;;;10174604;28;20078;-77
2024/01/14 03:08:25;;;;;;;12.85;11.07;;;;;;;;;;10176323;28;20071;-77
2024/01/14 03:13:17;;;;;;;15.43;11.55;;;;;;;;;;10174181;28;20123;-77
2024/01/14 03:18:09;;;;;;;15.77;12.68;;;;;;;;;;10173214;28;20052;-76
2024/01/14 03:23:01;;;;;;;12.50;10.98;;;;;;;;;;10175864;28;20139;-77
2024/01/14 03:27:53;;;;;;;13.02;10.93;;;;;;;;;;10173893;28;20682;-76
2024/01/14 03:32:45;;;;;;;14.43;11.35;;;;;;;;;;10174181;28;20043;-76
2024/01/14 03:37:37;;;;;;;17.10;14.65;;;;;;;;;;10174600;28;20089;-77
2024/01/14 03:42:29;;;;;;;16.20;12.27;;;;;;;;;;10172876;28;20045;-76
2024/01/14 03:47:21;;;;;;;13.88;12.30;;;;;;;;;;10187930;28;20049;-77
2024/01/14 03:52:13;;;;;;;19.77;14.10;;;;;;;;;;10172896;28;20076;-76
2024/01/14 03:57:06;;;;;;;16.48;13.48;;;;;;;;;;10176423;28;20130;-77
2024/01/14 04:01:58;;;;;;;17.00;11.85;;;;;;;;;;10161111;28;20073;-76
2024/01/14 04:06:50;;;;;;;15.27;13.18;;;;;;;;;;10183749;28;20680;-77
2024/01/14 04:11:42;;;;;;;15.05;12.98;;;;;;;;;;10184298;28;20126;-76
2024/01/14 04:16:37;;;;;;;15.27;12.60;;;;;;;;;;10184045;28;20044;-77
2024/01/14 04:21:29;;;;;;;16.65;12.85;;;;;;;;;;10181977;28;20158;-78
2024/01/14 04:26:22;;;;;;;16.95;12.63;;;;;;;;;;10182699;28;20390;-77
2024/01/14 04:31:14;;;;;;;16.75;12.85;;;;;;;;;;10146297;28;20083;-77
2024/01/14 04:36:08;;;;;;;14.68;11.57;;;;;;;;;;10145813;28;20127;-77
2024/01/14 04:41:00;;;;;;;16.52;13.43;;;;;;;;;;10144681;28;20104;-77
2024/01/14 04:45:52;;;;;;;15.13;11.73;;;;;;;;;;10145234;28;20480;-77
2024/01/14 04:50:44;;;;;;;15.65;12.52;;;;;;;;;;10145265;28;20052;-77
2024/01/14 04:55:36;;;;;;;16.65;13.10;;;;;;;;;;10157190;28;20067;-77
2024/01/14 05:00:28;;;;;;;16.42;13.05;;;;;;;;;;10159728;28;20137;-77
2024/01/14 05:05:19;;;;;;;17.05;13.15;;;;;;;;;;10184478;28;20049;-77
2024/01/14 05:10:11;;;;;;;15.57;13.93;;;;;;;;;;10158409;28;20048;-77
2024/01/14 05:15:04;;;;;;;16.45;14.50;;;;;;;;;;10159380;28;20123;-77
2024/01/14 05:19:56;;;;;;;21.13;16.30;;;;;;;;;;10157470;28;20048;-76
2024/01/14 05:24:50;;;;;;;20.58;17.27;;;;;;;;;;10157661;28;20427;-76
2024/01/14 05:29:43;;;;;;;21.10;17.15;;;;;;;;;;10156764;28;20044;-75
2024/01/14 05:34:35;;;;;;;23.67;19.25;;;;;;;;;;10158727;28;20045;-76
2024/01/14 05:39:27;;;;;;;21.15;18.40;;;;;;;;;;10157929;28;20044;-76
2024/01/14 05:44:19;;;;;;;26.65;20.60;;;;;;;;;;10158080;28;20052;-76
2024/01/14 05:49:11;;;;;;;28.73;21.70;;;;;;;;;;10156847;28;20032;-76
2024/01/14 05:54:03;;;;;;;25.58;20.77;;;;;;;;;;10157506;28;20047;-77
2024/01/14 05:58:56;;;;;;;20.38;16.75;;;;;;;;;;10156860;28;20456;-75
2024/01/14 06:03:48;;;;;;;23.63;18.75;;;;;;;;;;10161512;28;20049;-78
2024/01/14 06:08:43;;;;;;;20.17;17.77;;;;;;;;;;10151009;28;20036;-75
2024/01/14 06:13:35;;;;;;;21.42;15.63;;;;;;;;;;10151416;28;20401;-76
2024/01/14 06:18:28;;;;;;;23.05;16.90;;;;;;;;;;10150069;28;20059;-76
2024/01/14 06:23:20;;;;;;;23.13;16.60;;;;;;;;;;10150690;28;20068;-76
2024/01/14 06:28:11;;;;;;;18.90;15.40;;;;;;;;;;10150002;28;20043;-76
2024/01/14 06:33:04;;;;;;;28.45;17.10;;;;;;;;;;10149433;28;20086;-78
2024/01/14 06:37:56;;;;;;;22.65;16.88;;;;;;;;;;10148790;28;20052;-77
2024/01/14 06:42:48;;;;;;;21.15;17.45;;;;;;;;;;10156887;28;20052;-78
2024/01/14 06:47:40;;;;;;;22.42;15.68;;;;;;;;;;10154147;28;20044;-75
2024/01/14 06:52:32;;;;;;;24.92;19.70;;;;;;;;;;10177374;28;20051;-78
2024/01/14 06:57:24;;;;;;;25.38;18.65;;;;;;;;;;10180216;28;20040;-78
2024/01/14 07:02:16;;;;;;;26.25;19.98;;;;;;;;;;10185484;28;20063;-78
2024/01/14 07:07:08;;;;;;;25.65;20.35;;;;;;;;;;10179313;28;20047;-75
2024/01/14 07:12:01;;;;;;;22.52;18.38;;;;;;;;;;10185956;28;20127;-78
2024/01/14 07:16:52;;;;;;;24.80;21.73;;;;;;;;;;10185336;28;20423;-77
2024/01/14 07:21:44;;;;;;;24.15;18.88;;;;;;;;;;10186052;28;20040;-75
2024/01/14 07:26:36;;;;;;;22.30;18.05;;;;;;;;;;10183193;28;20126;-79
2024/01/14 07:31:30;;;;;;;24.20;18.70;;;;;;;;;;10183601;28;20128;-78
2024/01/14 07:36:23;;;;;;;22.80;17.95;;;;;;;;;;10183959;28;20445;-75
2024/01/14 07:41:15;;;;;;;24.48;20.40;;;;;;;;;;10184953;28;20480;-79
2024/01/14 07:46:08;;;;;;;31.92;23.00;;;;;;;;;;10184145;28;20079;-78
2024/01/14 07:51:00;;;;;;;31.30;25.48;;;;;;;;;;10183720;28;20040;-78
2024/01/14 07:55:53;;;;;;;32.95;26.52;;;;;;;;;;10184627;28;20036;-77
2024/01/14 08:00:45;;;;;;;32.78;25.80;;;;;;;;;;10185606;28;20036;-77
2024/01/14 08:05:52;;;;;;;32.33;26.10;;;;;;;;;;10185556;28;20049;-77
2024/01/14 08:10:44;;;;;;;28.85;23.77;;;;;;;;;;10184274;28;20071;-76
2024/01/14 08:15:36;;;;;;;32.50;25.50;;;;;;;;;;10184051;28;20425;-78
2024/01/14 08:20:44;;;;;;;35.58;28.40;;;;;;;;;;10183512;28;20059;-78
2024/01/14 08:25:36;;;;;;;48.90;42.33;;;;;;;;;;10184832;28;20072;-78
2024/01/14 08:30:28;;;;;;;40.13;29.70;;;;;;;;;;10183360;28;20464;-79
2024/01/14 08:35:23;;;;;;;36.15;30.38;;;;;;;;;;10184233;28;20196;-78
2024/01/14 08:40:15;;;;;;;37.22;29.67;;;;;;;;;;10183412;28;20048;-77
2024/01/14 08:45:08;;;;;;;40.10;32.58;;;;;;;;;;10179594;28;20056;-77
2024/01/14 08:50:00;;;;;;;43.28;33.20;;;;;;;;;;10146007;28;20047;-77
2024/01/14 08:54:52;;;;;;;44.10;33.35;;;;;;;;;;10145715;28;20036;-76
2024/01/14 08:59:44;;;;;;;45.30;34.67;;;;;;;;;;10144201;28;20045;-78
2024/01/14 09:04:36;;;;;;;42.55;33.25;;;;;;;;;;10144526;28;20408;-78
2024/01/14 09:09:28;;;;;;;39.00;32.92;;;;;;;;;;10144464;28;20139;-76
2024/01/14 09:14:20;;;;;;;45.78;35.05;;;;;;;;;;10143929;28;20128;-77
2024/01/14 09:19:12;;;;;;;42.33;35.20;;;;;;;;;;10143867;28;20131;-76
2024/01/14 09:24:05;;;;;;;42.42;34.92;;;;;;;;;;10145310;28;20471;-76
2024/01/14 09:28:57;;;;;;;41.97;37.28;;;;;;;;;;10169984;28;20043;-79
2024/01/14 09:33:49;;;;;;;43.35;35.30;;;;;;;;;;10162963;28;20379;-73
2024/01/14 09:38:41;;;;;;;42.47;36.70;;;;;;;;;;10185389;28;20048;-73
2024/01/14 09:43:37;;;;;;;50.65;38.08;;;;;;;;;;10189092;28;20161;-73
2024/01/14 09:48:30;;;;;;;46.58;36.67;;;;;;;;;;10188407;28;20244;-72
2024/01/14 09:53:23;;;;;;;47.78;37.88;;;;;;;;;;10188014;28;20040;-73
2024/01/14 09:58:16;;;;;;;43.67;34.38;;;;;;;;;;10197173;28;20462;-72
2024/01/14 10:03:08;;;;;;;46.38;35.08;;;;;;;;;;10203802;28;20040;-72
2024/01/14 10:08:00;;;;;;;41.72;35.88;;;;;;;;;;10187897;28;20482;-72
2024/01/14 10:12:52;;;;;;;46.83;37.28;;;;;;;;;;10188828;28;20079;-72
2024/01/14 10:17:46;;;;;;;52.22;38.22;;;;;;;;;;10194096;28;20070;-72
2024/01/14 10:22:42;;;;;;;52.33;42.00;;;;;;;;;;10202676;28;20410;-72
2024/01/14 10:27:34;;;;;;;57.72;45.15;;;;;;;;;;10188053;28;20085;-72
2024/01/14 10:32:31;;;;;;;61.75;47.88;;;;;;;;;;10196019;28;20441;-73
2024/01/14 10:37:43;;;;;;;55.08;45.53;;;;;;;;;;10177696;28;20028;-73
2024/01/14 10:42:36;;;;;;;54.90;43.60;;;;;;;;;;10193321;28;20092;-72
2024/01/14 10:47:30;;;;;;;53.97;44.03;;;;;;;;;;10201145;28;20052;-71
2024/01/14 10:52:25;;;;;;;54.33;45.90;;;;;;;;;;10186054;28;20145;-70
2024/01/14 10:57:26;;;;;;;55.65;43.90;;;;;;;;;;10184902;28;20044;-71
2024/01/14 11:02:18;;;;;;;54.03;43.70;;;;;;;;;;10186075;28;20241;-70
2024/01/14 11:07:12;;;;;;;60.72;50.10;;;;;;;;;;10184860;28;20040;-71
2024/01/14 11:12:10;;;;;;;58.88;47.90;;;;;;;;;;10184993;28;20063;-70
2024/01/14 11:17:35;;;;;;;60.33;46.80;;;;;;;;;;10184835;28;20044;-71
2024/01/14 11:22:26;;;;;;;56.30;45.83;;;;;;;;;;10166901;28;20079;-72
2024/01/14 11:27:29;;;;;;;55.75;43.63;;;;;;;;;;10166857;28;20032;-72
2024/01/14 11:32:23;;;;;;;57.65;47.40;;;;;;;;;;10164813;28;20043;-72
2024/01/14 11:37:32;;;;;;;61.20;49.47;;;;;;;;;;10146694;28;20071;-72
2024/01/14 11:42:26;;;;;;;70.28;53.40;;;;;;;;;;10155337;28;20452;-71
2024/01/14 11:47:20;;;;;;;59.33;49.95;;;;;;;;;;10162919;28;20044;-72
2024/01/14 11:52:12;;;;;;;57.30;46.65;;;;;;;;;;10165086;28;20040;-71
2024/01/14 11:57:34;;;;;;;59.67;45.45;;;;;;;;;;10181935;28;20074;-72
2024/01/14 12:02:25;;;;;;;60.58;47.42;;;;;;;;;;10140164;28;20435;-71
2024/01/14 12:07:21;;;;;;;65.15;50.63;;;;;;;;;;10144969;28;20072;-70
2024/01/14 12:12:13;;;;;;;62.50;51.20;;;;;;;;;;10156910;28;20040;-69
2024/01/14 12:17:09;;;;;;;68.93;57.35;;;;;;;;;;10143810;28;20039;-70
2024/01/14 12:22:02;;;;;;;70.90;61.50;;;;;;;;;;10151230;28;20055;-70
2024/01/14 12:26:57;;;;;;;59.70;50.60;;;;;;;;;;10153131;28;20044;-70
2024/01/14 12:31:49;;;;;;;61.42;47.55;;;;;;;;;;10155573;28;20052;-70
2024/01/14 12:36:47;;;;;;;57.25;48.90;;;;;;;;;;10154010;28;20127;-69
2024/01/14 12:41:45;;;;;;;57.33;46.20;;;;;;;;;;10150641;28;20044;-70
2024/01/14 12:46:50;;;;;;;63.42;53.60;;;;;;;;;;10152515;28;20483;-70
2024/01/14 12:51:58;;;;;;;59.17;49.67;;;;;;;;;;10151598;28;20098;-69
2024/01/14 12:57:03;;;;;;;58.97;47.55;;;;;;;;;;10143741;28;20143;-74
2024/01/14 13:01:55;;;;;;;53.72;46.17;;;;;;;;;;10155328;28;20079;-73
2024/01/14 13:06:47;;;;;;;56.83;48.25;;;;;;;;;;10152597;28;20079;-74
2024/01/14 13:11:43;;;;;;;57.65;49.03;;;;;;;;;;10151131;28;20056;-74
2024/01/14 13:16:37;;;;;;;57.20;48.60;;;;;;;;;;10148699;28;20049;-74
2024/01/14 13:21:40;;;;;;;62.85;52.03;;;;;;;;;;10157625;28;20052;-74
2024/01/14 13:26:36;;;;;;;58.88;50.17;;;;;;;;;;10150390;28;20127;-74
2024/01/14 13:31:28;;;;;;;57.17;48.65;;;;;;;;;;10154089;28;20355;-75
2024/01/14 13:36:20;;;;;;;54.45;46.50;;;;;;;;;;10151201;28;20279;-74
2024/01/14 13:41:12;;;;;;;53.30;46.13;;;;;;;;;;10161636;28;20047;-73
2024/01/14 13:46:04;;;;;;;56.15;48.17;;;;;;;;;;10151143;28;20447;-73
2024/01/14 13:50:56;;;;;;;56.42;46.65;;;;;;;;;;10159835;28;20040;-76
2024/01/14 13:55:48;;;;;;;57.65;44.13;;;;;;;;;;10155168;28;20123;-73
2024/01/14 14:00:39;;;;;;;55.50;47.33;;;;;;;;;;10158706;28;20503;-76
2024/01/14 14:05:31;;;;;;;56.72;48.30;;;;;;;;;;10167741;28;20041;-75
2024/01/14 14:10:23;;;;;;;63.00;49.10;;;;;;;;;;10172023;28;20477;-74
2024/01/14 14:15:15;;;;;;;54.30;48.33;;;;;;;;;;10172302;28;20082;-74
2024/01/14 14:20:08;;;;;;;56.67;48.47;;;;;;;;;;10154004;28;20052;-73
2024/01/14 14:25:00;;;;;;;60.95;50.20;;;;;;;;;;10151854;28;20076;-73
2024/01/14 14:29:52;;;;;;;60.67;51.05;;;;;;;;;;10172017;28;20147;-73
2024/01/14 14:34:44;;;;;;;54.92;49.08;;;;;;;;;;10185732;28;20072;-73
2024/01/14 14:39:36;;;;;;;58.05;47.45;;;;;;;;;;10188190;28;20122;-73
2024/01/14 14:44:28;;;;;;;55.63;48.65;;;;;;;;;;10187459;28;20058;-74
2024/01/14 14:49:20;;;;;;;50.40;44.83;;;;;;;;;;10193877;28;20052;-73
2024/01/14 14:54:12;;;;;;;52.90;46.53;;;;;;;;;;10190132;28;20441;-74
2024/01/14 14:59:05;;;;;;;51.53;44.65;;;;;;;;;;10190644;28;20549;-73
2024/01/14 15:03:57;;;;;;;50.22;44.35;;;;;;;;;;10184370;28;20040;-74
2024/01/14 15:08:49;;;;;;;53.38;44.72;;;;;;;;;;10185616;28;20044;-73
2024/01/14 15:13:41;;;;;;;55.45;47.28;;;;;;;;;;10176397;28;20044;-73
2024/01/14 15:18:33;;;;;;;51.67;45.70;;;;;;;;;;10163566;28;20048;-73
2024/01/14 15:23:26;;;;;;;58.53;48.92;;;;;;;;;;10185109;28;20044;-73
2024/01/14 15:28:18;;;;;;;52.58;45.10;;;;;;;;;;10177302;28;20329;-73
2024/01/14 15:33:10;;;;;;;57.03;47.08;;;;;;;;;;10196783;28;20051;-74
2024/01/14 15:38:04;;;;;;;54.53;48.50;;;;;;;;;;10196972;28;20032;-73
2024/01/14 15:42:56;;;;;;;63.33;53.75;;;;;;;;;;10193575;28;20040;-74
2024/01/14 15:47:48;;;;;;;57.00;49.42;;;;;;;;;;10185513;28;20048;-74
2024/01/14 15:52:40;;;;;;;62.17;52.22;;;;;;;;;;10191639;28;20465;-72
2024/01/14 15:57:32;;;;;;;64.82;53.05;;;;;;;;;;10193918;28;20063;-72
2024/01/14 16:02:24;;;;;;;56.30;48.28;;;;;;;;;;10189514;28;20114;-73
2024/01/14 16:07:16;;;;;;;60.58;50.42;;;;;;;;;;10190312;28;20391;-73
2024/01/14 16:12:08;;;;;;;59.67;50.85;;;;;;;;;;10180488;28;20090;-73
2024/01/14 16:17:00;;;;;;;60.60;51.53;;;;;;;;;;10145704;28;20482;-73
2024/01/14 16:21:52;;;;;;;55.22;46.53;;;;;;;;;;10188049;28;20345;-72
2024/01/14 16:26:44;;;;;;;61.67;47.33;;;;;;;;;;10156012;28;20143;-73
2024/01/14 16:31:36;;;;;;;63.75;49.42;;;;;;;;;;10153471;28;20135;-73
2024/01/14 16:36:28;;;;;;;61.22;48.90;;;;;;;;;;10159698;28;20148;-73
2024/01/14 16:41:20;;;;;;;55.97;47.92;;;;;;;;;;10180655;28;20074;-73
2024/01/14 16:46:13;;;;;;;74.18;57.42;;;;;;;;;;10175456;28;20431;-73
2024/01/14 16:51:06;;;;;;;67.43;50.83;;;;;;;;;;10183840;28;20551;-73
2024/01/14 16:56:03;;;;;;;54.70;45.08;;;;;;;;;;10182239;28;20516;-73
2024/01/14 17:00:55;;;;;;;55.20;47.53;;;;;;;;;;10198973;28;20484;-73
2024/01/14 17:06:06;;;;;;;52.20;42.13;;;;;;;;;;10189254;28;20399;-73
2024/01/14 17:11:07;;;;;;;54.85;43.28;;;;;;;;;;10182657;28;20052;-73
2024/01/14 17:15:59;;;;;;;47.85;41.13;;;;;;;;;;10191642;28;20040;-73
2024/01/14 17:21:01;;;;;;;49.50;41.90;;;;;;;;;;10188055;28;20044;-73
2024/01/14 17:25:54;;;;;;;49.33;42.33;;;;;;;;;;10186381;28;20093;-72
2024/01/14 17:30:59;;;;;;;52.67;42.03;;;;;;;;;;10184533;28;20443;-72
2024/01/14 17:35:51;;;;;;;54.40;46.42;;;;;;;;;;10191623;28;20044;-72
2024/01/14 17:40:56;;;;;;;61.90;50.05;;;;;;;;;;10160088;28;20056;-73
2024/01/14 17:45:48;;;;;;;54.42;47.72;;;;;;;;;;10156767;28;20060;-72
2024/01/14 17:50:57;;;;;;;56.17;47.13;;;;;;;;;;10148120;28;20063;-72
2024/01/14 17:55:50;;;;;;;54.38;46.15;;;;;;;;;;10163338;28;20105;-72
2024/01/14 18:00:42;;;;;;;59.30;49.53;;;;;;;;;;10184717;28;20045;-72
2024/01/14 18:05:35;;;;;;;71.75;56.60;;;;;;;;;;10186351;28;20064;-73
2024/01/14 18:10:27;;;;;;;63.60;52.00;;;;;;;;;;10153845;28;20040;-73
2024/01/14 18:15:20;;;;;;;64.60;54.80;;;;;;;;;;10165813;28;20083;-74
2024/01/14 18:20:12;;;;;;;91.90;76.13;;;;;;;;;;10161184;28;20050;-73
2024/01/14 18:25:05;;;;;;;67.03;56.53;;;;;;;;;;10164852;28;20048;-75
2024/01/14 18:29:56;;;;;;;68.85;55.78;;;;;;;;;;10170291;28;20117;-74
2024/01/14 18:34:50;;;;;;;61.35;51.38;;;;;;;;;;10169229;28;20051;-75
2024/01/14 18:39:43;;;;;;;68.38;51.50;;;;;;;;;;10183856;28;20048;-74
2024/01/14 18:44:35;;;;;;;67.65;54.35;;;;;;;;;;10188365;28;20043;-74
2024/01/14 18:49:27;;;;;;;67.38;53.70;;;;;;;;;;10194992;28;20096;-74
2024/01/14 18:54:19;;;;;;;62.92;51.63;;;;;;;;;;10199860;28;20111;-74
2024/01/14 18:59:12;;;;;;;68.50;54.10;;;;;;;;;;10189485;28;20123;-74
2024/01/14 19:04:04;;;;;;;72.57;54.92;;;;;;;;;;10198153;28;20048;-74
2024/01/14 19:09:00;;;;;;;72.00;53.47;;;;;;;;;;10186095;28;20044;-74
2024/01/14 19:13:57;;;;;;;72.03;55.03;;;;;;;;;;10190372;28;20058;-75
2024/01/14 19:18:49;;;;;;;75.78;56.67;;;;;;;;;;10178716;28;20048;-74
2024/01/14 19:23:44;;;;;;;69.38;57.30;;;;;;;;;;10194562;28;20060;-74
2024/01/14 19:28:36;;;;;;;72.80;59.03;;;;;;;;;;10181664;28;20040;-74
2024/01/14 19:33:28;;;;;;;81.60;57.10;;;;;;;;;;10185554;28;20040;-74
2024/01/14 19:38:20;;;;;;;88.40;59.35;;;;;;;;;;10150319;28;20044;-74
2024/01/14 19:43:14;;;;;;;73.53;54.65;;;;;;;;;;10174829;28;20140;-74
2024/01/14 19:48:06;;;;;;;127.22;85.97;;;;;;;;;;10150865;28;20040;-74
2024/01/14 19:52:58;;;;;;;95.70;62.80;;;;;;;;;;10164195;28;20059;-74
2024/01/14 19:57:51;;;;;;;81.43;58.15;;;;;;;;;;10156748;28;20040;-74
2024/01/14 20:02:44;;;;;;;93.50;63.95;;;;;;;;;;10189632;28;20127;-74
2024/01/14 20:07:36;;;;;;;101.63;62.55;;;;;;;;;;10162537;28;20055;-74
2024/01/14 20:12:28;;;;;;;89.32;63.95;;;;;;;;;;10152817;28;20123;-74
2024/01/14 20:17:23;;;;;;;91.65;63.80;;;;;;;;;;10182288;28;20074;-73
2024/01/14 20:22:15;;;;;;;121.80;63.72;;;;;;;;;;10171889;28;20389;-72
2024/01/14 20:27:07;;;;;;;97.68;59.90;;;;;;;;;;10170114;28;20374;-73
2024/01/14 20:32:01;;;;;;;106.63;58.03;;;;;;;;;;10148113;28;20355;-73
2024/01/14 20:36:53;;;;;;;84.53;57.17;;;;;;;;;;10162838;28;20048;-72
2024/01/14 20:41:45;;;;;;;96.78;61.05;;;;;;;;;;10152391;28;20136;-72
2024/01/14 20:46:38;;;;;;;80.90;58.42;;;;;;;;;;10146616;28;20461;-73
2024/01/14 20:51:31;;;;;;;78.45;57.72;;;;;;;;;;10171996;28;20430;-73
2024/01/14 20:56:24;;;;;;;84.22;64.20;;;;;;;;;;10152224;28;20048;-73
2024/01/14 21:01:17;;;;;;;81.90;60.38;;;;;;;;;;10153039;28;20048;-72
2024/01/14 21:06:10;;;;;;;83.18;65.13;;;;;;;;;;10158911;28;20040;-73
2024/01/14 21:11:06;;;;;;;95.18;62.63;;;;;;;;;;10158960;28;20059;-71
2024/01/14 21:15:59;;;;;;;94.93;65.38;;;;;;;;;;10151171;28;20044;-72
2024/01/14 21:20:51;;;;;;;115.50;71.35;;;;;;;;;;10168589;28;20044;-73
2024/01/14 21:25:44;;;;;;;116.55;74.72;;;;;;;;;;10184917;28;20036;-72
2024/01/14 21:30:37;;;;;;;111.13;79.05;;;;;;;;;;10178323;28;20048;-73
2024/01/14 21:35:29;;;;;;;84.53;65.30;;;;;;;;;;10187858;28;20152;-73
2024/01/14 21:40:21;;;;;;;68.18;54.55;;;;;;;;;;10186407;28;20047;-73
2024/01/14 21:45:15;;;;;;;78.20;58.55;;;;;;;;;;10192775;28;20044;-73
2024/01/14 21:50:08;;;;;;;83.57;63.20;;;;;;;;;;10194978;28;20044;-72
2024/01/14 21:55:00;;;;;;;81.65;60.95;;;;;;;;;;10197912;28;20040;-73
2024/01/14 21:59:53;;;;;;;63.05;48.75;;;;;;;;;;10199919;28;20142;-73
2024/01/14 22:04:45;;;;;;;64.50;53.60;;;;;;;;;;10186345;28;20097;-73
2024/01/14 22:09:38;;;;;;;67.13;55.10;;;;;;;;;;10172361;28;20090;-73
2024/01/14 22:14:30;;;;;;;64.20;51.92;;;;;;;;;;10149966;28;20122;-73
2024/01/14 22:19:22;;;;;;;65.65;51.75;;;;;;;;;;10150895;28;20086;-73
2024/01/14 22:24:14;;;;;;;63.08;52.88;;;;;;;;;;10162307;28;20565;-72
2024/01/14 22:29:26;;;;;;;69.00;52.72;;;;;;;;;;10158148;28;20043;-72
2024/01/14 22:34:18;;;;;;;75.15;59.45;;;;;;;;;;10155506;28;20085;-72
2024/01/14 22:39:10;;;;;;;84.57;65.07;;;;;;;;;;10155508;28;20093;-73
2024/01/14 22:44:01;;;;;;;85.68;62.13;;;;;;;;;;10148906;28;20399;-72
2024/01/14 22:48:53;;;;;;;82.80;61.17;;;;;;;;;;10151958;28;20071;-72
2024/01/14 22:53:45;;;;;;;80.60;61.22;;;;;;;;;;10154181;28;20036;-73
2024/01/14 22:58:38;;;;;;;87.88;63.17;;;;;;;;;;10153685;28;20040;-73
2024/01/14 23:03:29;;;;;;;85.45;61.53;;;;;;;;;;10164770;28;20122;-73
2024/01/14 23:08:21;;;;;;;86.45;63.55;;;;;;;;;;10164860;28;20139;-72
2024/01/14 23:13:17;;;;;;;80.60;61.83;;;;;;;;;;10152465;28;20045;-73
2024/01/14 23:18:10;;;;;;;77.97;61.08;;;;;;;;;;10149846;28;20115;-72
2024/01/14 23:23:02;;;;;;;81.20;63.08;;;;;;;;;;10149674;28;20044;-72
2024/01/14 23:27:53;;;;;;;80.00;60.47;;;;;;;;;;10148057;28;20522;-73
2024/01/14 23:32:46;;;;;;;84.80;60.70;;;;;;;;;;10151297;28;20128;-73
2024/01/14 23:37:38;;;;;;;75.22;57.55;;;;;;;;;;10147101;28;20526;-72
2024/01/14 23:42:30;;;;;;;73.80;56.10;;;;;;;;;;10150252;28;20402;-73
2024/01/14 23:47:22;;;;;;;70.28;54.72;;;;;;;;;;10146513;28;20044;-72
2024/01/14 23:52:14;;;;;;;69.35;53.75;;;;;;;;;;10147519;28;20047;-73
2024/01/14 23:57:05;;;;;;;75.05;55.95;;;;;;;;;;10147452;28;20461;-72
